createdAt,value
2019-05-02T00:02:00.364Z,97476.16
2019-05-02T00:04:29.892Z,97477.45
2019-05-02T00:07:03.602Z,97475.69
2019-05-02T00:09:34.223Z,97474.01
2019-05-02T00:12:04.682Z,97472.89
2019-05-02T00:14:34.488Z,97474.13
2019-05-02T00:17:04.273Z,97473.73
2019-05-02T00:19:33.718Z,97475.48
2019-05-02T00:22:03.223Z,97466.52
2019-05-02T00:24:33.956Z,97466.89
2019-05-02T00:27:03.964Z,97475.56
2019-05-02T00:29:33.537Z,97468.20
2019-05-02T00:32:02.980Z,97469.92
2019-05-02T00:34:32.428Z,97467.91
2019-05-02T00:37:01.862Z,97470.08
2019-05-02T00:39:31.372Z,97465.87
2019-05-02T00:42:12.110Z,97464.66
2019-05-02T00:44:31.974Z,97460.02
2019-05-02T00:47:06.065Z,97452.22
2019-05-02T00:49:35.409Z,97453.87
2019-05-02T00:52:06.116Z,97453.59
2019-05-02T00:54:35.559Z,97449.76
2019-05-02T00:57:05.059Z,97453.26
2019-05-02T00:59:37.837Z,97443.15
2019-05-02T01:02:10.551Z,97446.61
2019-05-02T01:04:41.639Z,97444.05
2019-05-02T01:07:12.534Z,97441.94
2019-05-02T01:09:46.433Z,97437.22
2019-05-02T01:12:25.739Z,97431.16
2019-05-02T01:14:44.346Z,97433.02
2019-05-02T01:17:13.843Z,97429.61
2019-05-02T01:19:47.302Z,97430.48
2019-05-02T01:22:16.016Z,97429.14
2019-05-02T01:24:45.591Z,97427.80
2019-05-02T01:27:16.677Z,97424.52
2019-05-02T01:29:47.744Z,97423.72
2019-05-02T01:32:25.194Z,97426.48
2019-05-02T01:34:56.415Z,97428.92
2019-05-02T01:37:33.138Z,97418.75
2019-05-02T01:40:02.560Z,97415.32
2019-05-02T01:42:39.640Z,97418.72
2019-05-02T01:45:06.742Z,97415.44
2019-05-02T01:47:35.877Z,97412.45
2019-05-02T01:50:06.137Z,97415.09
2019-05-02T01:52:35.569Z,97405.73
2019-05-02T01:55:06.932Z,97409.59
2019-05-02T01:57:40.016Z,97408.78
2019-05-02T02:00:11.418Z,97406.25
2019-05-02T02:02:40.940Z,97398.39
2019-05-02T02:05:10.515Z,97395.45
2019-05-02T02:07:39.944Z,97394.05
2019-05-02T02:10:09.797Z,97388.09
2019-05-02T02:12:41.227Z,97390.27
2019-05-02T02:15:10.973Z,97382.24
2019-05-02T02:17:40.455Z,97380.05
2019-05-02T02:20:17.106Z,97381.31
2019-05-02T02:22:48.186Z,97379.74
2019-05-02T02:25:40.282Z,97380.08
2019-05-02T02:28:09.728Z,97384.56
2019-05-02T02:30:39.155Z,97383.59
2019-05-02T02:33:09.802Z,97380.09
2019-05-02T02:35:49.626Z,97382.13
2019-05-02T02:38:10.568Z,97378.00
2019-05-02T02:40:40.297Z,97377.02
2019-05-02T02:43:30.305Z,97376.64
2019-05-02T02:45:51.832Z,97379.20
2019-05-02T02:48:22.367Z,97375.66
2019-05-02T02:50:51.814Z,97381.59
2019-05-02T02:53:32.926Z,97384.93
2019-05-02T02:56:08.212Z,97377.66
2019-05-02T02:58:45.182Z,97378.54
2019-05-02T03:01:08.933Z,97370.90
2019-05-02T03:03:38.383Z,97366.22
2019-05-02T03:06:08.523Z,97365.64
2019-05-02T03:08:46.086Z,97361.86
2019-05-02T03:11:10.853Z,97364.42
2019-05-02T03:13:52.366Z,97368.91
2019-05-02T03:16:14.784Z,97365.88
2019-05-02T03:18:44.374Z,97361.27
2019-05-02T03:21:20.153Z,97358.41
2019-05-02T03:23:45.045Z,97353.72
2019-05-02T03:26:15.630Z,97350.54
2019-05-02T03:28:57.179Z,97343.71
2019-05-02T03:31:29.502Z,97346.36
2019-05-02T03:34:00.158Z,97344.27
2019-05-02T03:36:28.794Z,97347.39
2019-05-02T03:38:50.657Z,97353.64
2019-05-02T03:41:23.135Z,97349.11
2019-05-02T03:44:09.044Z,97352.12
2019-05-02T03:46:22.784Z,97347.80
2019-05-02T03:48:52.398Z,97339.72
2019-05-02T03:51:25.198Z,97346.66
2019-05-02T03:54:05.812Z,97338.86
2019-05-02T03:56:24.455Z,97339.32
2019-05-02T03:58:55.943Z,97337.66
2019-05-02T04:01:25.284Z,97338.50
2019-05-02T04:03:54.782Z,97340.52
2019-05-02T04:06:24.208Z,97339.72
2019-05-02T04:08:59.628Z,97337.55
2019-05-02T04:11:32.825Z,97341.65
2019-05-02T04:13:58.215Z,97337.76
2019-05-02T04:16:29.683Z,97339.47
2019-05-02T04:19:01.784Z,97342.66
2019-05-02T04:21:31.351Z,97342.28
2019-05-02T04:24:12.869Z,97341.30
2019-05-02T04:26:32.620Z,97345.66
2019-05-02T04:29:02.042Z,97340.80
2019-05-02T04:31:33.635Z,97342.02
2019-05-02T04:34:13.689Z,97348.06
2019-05-02T04:36:33.802Z,97340.84
2019-05-02T04:39:05.750Z,97347.06
2019-05-02T04:41:35.874Z,97347.06
2019-05-02T04:44:05.375Z,97349.28
2019-05-02T04:46:34.814Z,97348.00
2019-05-02T04:49:04.255Z,97347.09
2019-05-02T04:51:33.699Z,97342.59
2019-05-02T04:54:03.159Z,97339.95
2019-05-02T04:56:32.562Z,97346.70
2019-05-02T04:59:08.509Z,97342.33
2019-05-02T05:01:41.874Z,97342.44
2019-05-02T05:04:04.329Z,97347.39
2019-05-02T05:06:33.764Z,97345.13
2019-05-02T05:09:12.667Z,97343.77
2019-05-02T05:11:38.030Z,97341.06
2019-05-02T05:14:09.926Z,97342.34
2019-05-02T05:16:40.070Z,97351.20
2019-05-02T05:19:09.615Z,97343.97
2019-05-02T05:21:39.044Z,97347.80
2019-05-02T05:24:08.257Z,97347.39
2019-05-02T05:26:42.956Z,97343.69
2019-05-02T05:29:13.904Z,97345.37
2019-05-02T05:31:41.653Z,97350.33
2019-05-02T05:34:11.078Z,97346.16
2019-05-02T05:36:40.522Z,97349.09
2019-05-02T05:39:11.716Z,97346.94
2019-05-02T05:41:42.803Z,97344.75
2019-05-02T05:44:12.430Z,97344.64
2019-05-02T05:46:42.673Z,97342.59
2019-05-02T05:49:18.341Z,97343.13
2019-05-02T05:51:43.363Z,97346.39
2019-05-02T05:54:12.795Z,97339.81
2019-05-02T05:56:43.296Z,97341.38
2019-05-02T05:59:12.802Z,97336.70
2019-05-02T06:01:42.704Z,97331.80
2019-05-02T06:04:13.964Z,97335.03
2019-05-02T06:06:43.314Z,97332.70
2019-05-02T06:09:13.951Z,97329.27
2019-05-02T06:11:43.464Z,97336.14
2019-05-02T06:14:12.924Z,97334.44
2019-05-02T06:16:46.712Z,97335.97
2019-05-02T06:19:17.958Z,97330.84
2019-05-02T06:21:46.666Z,97327.13
2019-05-02T06:24:15.981Z,97321.68
2019-05-02T06:26:49.903Z,97320.97
2019-05-02T06:29:18.717Z,97315.88
2019-05-02T06:31:48.785Z,97313.13
2019-05-02T06:34:18.503Z,97306.09
2019-05-02T06:36:47.948Z,97310.02
2019-05-02T06:39:17.385Z,97311.34
2019-05-02T06:41:46.831Z,97312.53
2019-05-02T06:44:18.469Z,97306.78
2019-05-02T06:46:47.416Z,97308.90
2019-05-02T06:49:16.867Z,97303.02
2019-05-02T06:51:46.304Z,97307.19
2019-05-02T06:54:18.046Z,97310.66
2019-05-02T06:56:47.968Z,97304.39
2019-05-02T06:59:20.137Z,97305.37
2019-05-02T07:01:52.361Z,97311.85
2019-05-02T07:04:22.917Z,97304.28
2019-05-02T07:06:58.631Z,97308.03
2019-05-02T07:09:22.873Z,97308.13
2019-05-02T07:11:57.315Z,97305.09
2019-05-02T07:14:25.505Z,97306.17
2019-05-02T07:17:05.365Z,97306.14
2019-05-02T07:19:34.813Z,97303.04
2019-05-02T07:22:04.637Z,97302.95
2019-05-02T07:24:34.302Z,97297.48
2019-05-02T07:27:03.765Z,97299.80
2019-05-02T07:29:33.235Z,97295.91
2019-05-02T07:32:02.651Z,97295.83
2019-05-02T07:34:32.105Z,97292.26
2019-05-02T07:37:01.544Z,97288.09
2019-05-02T07:39:30.999Z,97289.03
2019-05-02T07:42:05.335Z,97287.02
2019-05-02T07:44:32.748Z,97283.99
2019-05-02T07:47:04.604Z,97282.38
2019-05-02T07:49:34.333Z,97280.15
2019-05-02T07:52:03.828Z,97279.50
2019-05-02T07:54:33.279Z,97273.72
2019-05-02T07:57:02.741Z,97277.41
2019-05-02T07:59:32.179Z,97275.66
2019-05-02T08:02:01.612Z,97274.84
2019-05-02T08:04:31.063Z,97274.53
2019-05-02T08:07:00.509Z,97272.00
2019-05-02T08:09:30.120Z,97265.27
2019-05-02T08:11:59.574Z,97266.41
2019-05-02T08:14:33.983Z,97261.09
2019-05-02T08:17:05.865Z,97256.25
2019-05-02T08:19:31.344Z,97259.95
2019-05-02T08:22:04.162Z,97255.03
2019-05-02T08:24:33.093Z,97258.33
2019-05-02T08:27:05.724Z,97259.34
2019-05-02T08:29:36.811Z,97263.00
2019-05-02T08:32:06.317Z,97264.72
2019-05-02T08:34:35.762Z,97265.05
2019-05-02T08:37:05.358Z,97260.54
2019-05-02T08:39:35.242Z,97266.30
2019-05-02T08:42:05.442Z,97268.93
2019-05-02T08:44:34.881Z,97272.48
2019-05-02T08:47:04.626Z,97270.69
2019-05-02T08:49:34.073Z,97271.02
2019-05-02T08:52:03.578Z,97270.92
2019-05-02T08:54:34.101Z,97272.63
2019-05-02T08:57:03.675Z,97272.87
2019-05-02T08:59:33.110Z,97272.37
2019-05-02T09:02:02.558Z,97277.84
2019-05-02T09:04:32.067Z,97270.23
2019-05-02T09:07:01.810Z,97263.98
2019-05-02T09:09:31.276Z,97249.27
2019-05-02T09:12:11.390Z,97254.78
2019-05-02T09:14:32.277Z,97254.92
2019-05-02T09:17:08.474Z,97244.95
2019-05-02T09:19:34.905Z,97247.55
2019-05-02T09:22:07.463Z,97243.06
2019-05-02T09:24:35.357Z,97246.29
2019-05-02T09:27:04.925Z,97245.38
2019-05-02T09:29:37.329Z,97242.70
2019-05-02T09:32:05.749Z,97243.23
2019-05-02T09:34:35.235Z,97242.53
2019-05-02T09:37:04.724Z,97232.28
2019-05-02T09:39:36.509Z,97231.35
2019-05-02T09:42:06.722Z,97228.95
2019-05-02T09:44:36.736Z,97224.59
2019-05-02T09:47:06.202Z,97223.22
2019-05-02T09:49:35.647Z,97220.72
2019-05-02T09:52:05.199Z,97215.98
2019-05-02T09:54:36.991Z,97214.42
2019-05-02T09:57:05.893Z,97221.13
2019-05-02T09:59:35.351Z,97219.89
2019-05-02T10:02:05.467Z,97218.50
2019-05-02T10:04:34.969Z,97213.59
2019-05-02T10:07:04.507Z,97211.95
2019-05-02T10:09:34.006Z,97207.59
2019-05-02T10:12:03.492Z,97204.73
2019-05-02T10:14:33.254Z,97199.23
2019-05-02T10:17:06.955Z,97197.28
2019-05-02T10:19:34.047Z,97190.30
2019-05-02T10:22:03.516Z,97182.95
2019-05-02T10:24:32.998Z,97188.71
2019-05-02T10:27:06.460Z,97188.44
2019-05-02T10:29:33.688Z,97191.41
2019-05-02T10:32:07.443Z,97188.93
2019-05-02T10:34:34.419Z,97193.91
2019-05-02T10:37:03.948Z,97187.05
2019-05-02T10:39:37.695Z,97189.39
2019-05-02T10:42:04.680Z,97177.30
2019-05-02T10:44:36.478Z,97172.52
2019-05-02T10:47:05.680Z,97177.56
2019-05-02T10:49:36.803Z,97170.69
2019-05-02T10:52:06.499Z,97170.55
2019-05-02T10:54:37.538Z,97164.64
2019-05-02T10:57:07.126Z,97175.53
2019-05-02T10:59:36.643Z,97171.34
2019-05-02T11:02:07.894Z,97169.86
2019-05-02T11:04:38.995Z,97169.31
2019-05-02T11:07:08.445Z,97169.47
2019-05-02T11:09:37.889Z,97165.75
2019-05-02T11:12:09.095Z,97159.33
2019-05-02T11:14:56.061Z,97159.16
2019-05-02T11:17:32.188Z,97151.27
2019-05-02T11:20:02.644Z,97152.05
2019-05-02T11:22:32.210Z,97146.80
2019-05-02T11:25:02.039Z,97140.78
2019-05-02T11:27:32.880Z,97135.75
2019-05-02T11:30:02.841Z,97134.45
2019-05-02T11:32:34.033Z,97131.95
2019-05-02T11:35:04.418Z,97132.41
2019-05-02T11:37:33.863Z,97132.23
2019-05-02T11:40:06.206Z,97129.86
2019-05-02T11:42:35.117Z,97129.33
2019-05-02T11:45:06.569Z,97124.42
2019-05-02T11:47:36.018Z,97118.28
2019-05-02T11:50:06.098Z,97117.92
2019-05-02T11:52:37.382Z,97117.34
2019-05-02T11:55:07.757Z,97114.10
2019-05-02T11:57:37.207Z,97116.94
2019-05-02T12:00:12.229Z,97106.97
2019-05-02T12:02:41.770Z,97114.67
2019-05-02T12:05:18.263Z,97113.03
2019-05-02T12:07:47.695Z,97109.25
2019-05-02T12:10:17.486Z,97105.36
2019-05-02T12:12:46.912Z,97101.73
2019-05-02T12:15:16.496Z,97110.45
2019-05-02T12:17:45.943Z,97107.69
2019-05-02T12:20:15.452Z,97097.16
2019-05-02T12:22:44.899Z,97099.61
2019-05-02T12:25:14.406Z,97096.94
2019-05-02T12:27:43.841Z,97090.78
2019-05-02T12:30:13.423Z,97097.56
2019-05-02T12:32:42.875Z,97088.89
2019-05-02T12:35:12.331Z,97092.95
2019-05-02T12:37:42.417Z,97091.92
2019-05-02T12:40:12.346Z,97092.41
2019-05-02T12:42:41.903Z,97094.30
2019-05-02T12:45:12.382Z,97086.18
2019-05-02T12:47:42.829Z,97084.20
2019-05-02T12:50:12.464Z,97088.63
2019-05-02T12:52:42.917Z,97087.97
2019-05-02T12:55:12.856Z,97090.41
2019-05-02T12:57:42.885Z,97095.36
2019-05-02T13:00:13.035Z,97090.64
2019-05-02T13:02:44.199Z,97095.81
2019-05-02T13:05:13.749Z,97085.23
2019-05-02T13:07:50.507Z,97089.19
2019-05-02T13:10:16.129Z,97086.30
2019-05-02T13:12:46.039Z,97090.67
2019-05-02T13:15:15.987Z,97082.22
2019-05-02T13:17:48.952Z,97073.92
2019-05-02T13:20:18.963Z,97070.31
2019-05-02T13:22:50.041Z,97072.71
2019-05-02T13:25:22.504Z,97067.66
2019-05-02T13:27:52.265Z,97063.05
2019-05-02T13:30:26.156Z,97059.63
2019-05-02T13:32:58.011Z,97065.20
2019-05-02T13:35:34.817Z,97059.17
2019-05-02T13:38:04.491Z,97053.11
2019-05-02T13:40:36.004Z,97051.52
2019-05-02T13:43:05.594Z,97046.67
2019-05-02T13:45:41.923Z,97045.83
2019-05-02T13:48:12.209Z,97050.70
2019-05-02T13:50:42.262Z,97041.77
2019-05-02T13:53:12.241Z,97040.00
2019-05-02T13:55:43.329Z,97038.73
2019-05-02T13:58:12.783Z,97038.06
2019-05-02T14:00:45.004Z,97050.66
2019-05-02T14:03:14.685Z,97045.55
2019-05-02T14:05:49.284Z,97035.95
2019-05-02T14:08:36.876Z,97035.27
2019-05-02T14:11:04.799Z,97033.19
2019-05-02T14:13:35.870Z,97026.04
2019-05-02T14:16:05.439Z,97022.38
2019-05-02T14:18:34.900Z,97023.92
2019-05-02T14:21:04.501Z,97027.87
2019-05-02T14:23:33.956Z,97024.31
2019-05-02T14:26:03.395Z,97022.32
2019-05-02T14:28:36.251Z,97017.51
2019-05-02T14:31:04.007Z,97020.53
2019-05-02T14:33:35.082Z,97015.88
2019-05-02T14:36:04.535Z,97019.05
2019-05-02T14:38:34.240Z,97014.05
2019-05-02T14:41:12.863Z,97013.54
2019-05-02T14:43:53.894Z,97007.11
2019-05-02T14:46:29.015Z,97008.41
2019-05-02T14:48:56.339Z,97004.16
2019-05-02T14:51:27.884Z,97001.07
2019-05-02T14:54:01.905Z,97008.41
2019-05-02T14:56:43.370Z,96992.73
2019-05-02T14:59:15.186Z,97006.12
2019-05-02T15:01:47.045Z,97009.27
2019-05-02T15:04:16.589Z,96999.94
2019-05-02T15:06:47.639Z,97000.56
2019-05-02T15:09:24.862Z,97003.33
2019-05-02T15:12:02.364Z,96985.58
2019-05-02T15:14:34.237Z,96987.06
2019-05-02T15:17:04.400Z,96989.09
2019-05-02T15:19:33.841Z,96992.22
2019-05-02T15:22:03.364Z,96979.39
2019-05-02T15:24:37.652Z,96986.58
2019-05-02T15:27:11.658Z,96986.79
2019-05-02T15:29:35.144Z,96985.14
2019-05-02T15:32:25.222Z,96992.36
2019-05-02T15:35:02.392Z,96989.67
2019-05-02T15:37:34.172Z,96992.98
2019-05-02T15:42:35.776Z,96983.94
2019-05-02T15:45:06.732Z,96982.64
2019-05-02T15:47:36.929Z,96985.38
2019-05-02T15:50:07.487Z,96984.59
2019-05-02T15:52:38.568Z,96991.37
2019-05-02T15:55:08.815Z,96985.67
2019-05-02T15:57:43.712Z,96987.91
2019-05-02T16:00:17.192Z,96987.22
2019-05-02T16:02:43.348Z,96986.61
2019-05-02T16:05:13.373Z,96995.74
2019-05-02T16:07:46.626Z,96982.80
2019-05-02T16:10:15.773Z,96984.75
2019-05-02T16:12:46.854Z,96994.52
2019-05-02T16:15:21.505Z,96985.88
2019-05-02T16:17:47.881Z,96981.95
2019-05-02T16:20:19.199Z,96986.93
2019-05-02T16:22:49.968Z,96971.75
2019-05-02T16:25:20.056Z,96973.68
2019-05-02T16:27:52.741Z,96974.64
